Weather at Campo di Volo "Sky Ufita"

Public forecast

Using degrees Celsius for public forecast. Weather courtesy of forecast.io.

Closest aviation weather report (METAR) to Campo di Volo "Sky Ufita"

Closest report is Salerno Costa d'Amalfi Airport, 27.3 nm (50.5 km) SSW.

2024/06/15 13:50 (retrieved 57 minutes ago)

LIRI 151350Z 24009KT CAVOK 25/15 Q1014

Closest aviation forecast (TAF) to Campo di Volo "Sky Ufita"

Closest forecast is Foggia "Gino Lisa" Airport, 29.8 nm (55.2 km) NE.

2024/06/15 12:00 (retrieved 3 hours ago)

TAF LIBF 151145Z 1512/1612 VRB05KT CAVOK BECMG 1512/1514 10010KT BECMG 1516/1518 VRB05KT BECMG 1609/1611 24010KT